createdAt,value
2018-06-24T00:00:16.774Z,2.90
2018-06-24T00:02:45.911Z,2.90
2018-06-24T00:05:15.608Z,3.53
2018-06-24T00:07:44.927Z,3.10
2018-06-24T00:10:13.959Z,3.10
2018-06-24T00:12:43.091Z,2.90
2018-06-24T00:15:12.117Z,3.10
2018-06-24T00:17:42.481Z,3.33
2018-06-24T00:20:11.390Z,3.40
2018-06-24T00:22:40.909Z,3.30
2018-06-24T00:25:09.820Z,3.17
2018-06-24T00:27:39.050Z,3.20
2018-06-24T00:30:08.001Z,3.13
2018-06-24T00:32:36.899Z,3.20
2018-06-24T00:35:05.786Z,3.40
2018-06-24T00:37:34.667Z,3.40
2018-06-24T00:40:03.586Z,3.60
2018-06-24T00:42:32.508Z,3.33
2018-06-24T00:45:01.364Z,3.47
2018-06-24T00:47:30.255Z,3.60
2018-06-24T00:49:59.226Z,3.60
2018-06-24T00:52:28.120Z,3.57
2018-06-24T00:55:03.551Z,3.70
2018-06-24T00:57:32.506Z,3.60
2018-06-24T01:00:13.877Z,3.50
2018-06-24T01:02:42.775Z,3.50
2018-06-24T01:05:12.590Z,3.40
2018-06-24T01:07:42.410Z,3.60
2018-06-24T01:10:11.597Z,3.93
2018-06-24T01:12:40.902Z,3.73
2018-06-24T01:15:09.863Z,3.77
2018-06-24T01:17:38.770Z,3.90
2018-06-24T01:20:07.656Z,3.93
2018-06-24T01:22:36.544Z,3.50
2018-06-24T01:25:05.498Z,3.77
2018-06-24T01:27:34.506Z,3.83
2018-06-24T01:30:03.400Z,3.93
2018-06-24T01:32:32.286Z,3.97
2018-06-24T01:35:01.175Z,3.83
2018-06-24T01:37:30.070Z,4.00
2018-06-24T01:39:58.964Z,4.47
2018-06-24T01:42:27.853Z,4.30
2018-06-24T01:44:56.730Z,4.10
2018-06-24T01:47:25.623Z,4.57
2018-06-24T01:49:54.515Z,4.70
2018-06-24T01:52:23.410Z,4.60
2018-06-24T01:54:52.279Z,4.50
2018-06-24T01:57:21.187Z,4.73
2018-06-24T01:59:50.067Z,5.53
2018-06-24T02:02:18.958Z,5.13
2018-06-24T02:04:47.846Z,5.17
2018-06-24T02:07:16.762Z,4.97
2018-06-24T02:09:45.652Z,4.70
2018-06-24T02:12:14.534Z,4.73
2018-06-24T02:14:43.443Z,4.83
2018-06-24T02:17:12.331Z,5.30
2018-06-24T02:19:41.242Z,5.27
2018-06-24T02:22:10.138Z,5.47
2018-06-24T02:24:38.813Z,5.03
2018-06-24T02:27:07.584Z,5.30
2018-06-24T02:29:36.503Z,5.60
2018-06-24T02:32:05.436Z,5.83
2018-06-24T02:34:34.339Z,5.60
2018-06-24T02:37:03.231Z,5.97
2018-06-24T02:39:32.122Z,6.03
2018-06-24T02:42:01.136Z,5.73
2018-06-24T02:44:30.371Z,5.60
2018-06-24T02:46:59.273Z,5.77
2018-06-24T02:49:28.303Z,6.10
2018-06-24T02:51:57.335Z,5.93
2018-06-24T02:54:26.270Z,5.40
2018-06-24T02:56:55.165Z,5.67
2018-06-24T02:59:24.049Z,5.87
2018-06-24T03:01:52.935Z,5.70
2018-06-24T03:04:21.852Z,5.70
2018-06-24T03:06:50.742Z,5.80
2018-06-24T03:09:19.502Z,6.00
2018-06-24T03:11:48.275Z,6.00
2018-06-24T03:14:17.188Z,5.80
2018-06-24T03:16:46.090Z,5.93
2018-06-24T03:19:14.990Z,6.37
2018-06-24T03:21:43.878Z,6.10
2018-06-24T03:24:12.784Z,6.03
2018-06-24T03:26:41.674Z,5.53
2018-06-24T03:29:10.574Z,6.07
2018-06-24T03:31:39.471Z,6.20
2018-06-24T03:34:08.406Z,5.80
2018-06-24T03:36:37.331Z,6.10
2018-06-24T03:39:08.118Z,5.90
2018-06-24T03:41:37.003Z,6.43
2018-06-24T03:44:06.203Z,6.30
2018-06-24T03:46:35.382Z,6.43
2018-06-24T03:49:04.295Z,6.37
2018-06-24T03:51:33.174Z,6.23
2018-06-24T03:54:02.088Z,6.50
2018-06-24T03:56:30.982Z,6.23
2018-06-24T03:59:00.147Z,6.37
2018-06-24T04:01:29.746Z,6.63
2018-06-24T04:03:58.959Z,6.10
2018-06-24T04:06:27.866Z,6.03
2018-06-24T04:08:56.765Z,6.00
2018-06-24T04:11:25.652Z,6.10
2018-06-24T04:13:54.579Z,6.10
2018-06-24T04:16:23.462Z,6.30
2018-06-24T04:18:52.382Z,5.70
2018-06-24T04:21:21.343Z,5.70
2018-06-24T04:23:50.249Z,6.27
2018-06-24T04:26:19.151Z,5.93
2018-06-24T04:28:48.479Z,6.00
2018-06-24T04:31:17.350Z,5.80
2018-06-24T04:33:46.255Z,5.97
2018-06-24T04:36:15.151Z,5.93
2018-06-24T04:38:44.046Z,6.47
2018-06-24T04:41:12.955Z,5.70
2018-06-24T04:43:41.854Z,6.17
2018-06-24T04:46:10.764Z,5.93
2018-06-24T04:48:39.657Z,6.33
2018-06-24T04:51:08.550Z,5.67
2018-06-24T04:53:37.435Z,5.67
2018-06-24T04:56:06.594Z,5.83
2018-06-24T04:58:35.471Z,6.07
2018-06-24T05:01:04.384Z,5.47
2018-06-24T05:03:33.295Z,6.23
2018-06-24T05:06:02.347Z,5.77
2018-06-24T05:08:31.226Z,5.30
2018-06-24T05:11:00.131Z,6.20
2018-06-24T05:13:29.044Z,5.83
2018-06-24T05:15:57.955Z,6.00
2018-06-24T05:18:26.843Z,5.60
2018-06-24T05:20:55.785Z,5.43
2018-06-24T05:23:24.671Z,5.37
2018-06-24T05:25:53.607Z,5.93
2018-06-24T05:28:22.495Z,5.27
2018-06-24T05:30:51.399Z,5.40
2018-06-24T05:33:20.291Z,5.57
2018-06-24T05:35:49.223Z,5.20
2018-06-24T05:38:18.119Z,5.70
2018-06-24T05:40:47.077Z,5.40
2018-06-24T05:43:16.060Z,5.40
2018-06-24T05:45:45.051Z,5.00
2018-06-24T05:48:13.932Z,5.60
2018-06-24T05:50:42.833Z,5.37
2018-06-24T05:53:11.728Z,5.20
2018-06-24T05:55:40.629Z,5.90
2018-06-24T05:58:09.523Z,5.37
2018-06-24T06:00:38.428Z,5.07
2018-06-24T06:03:07.306Z,5.70
2018-06-24T06:05:36.219Z,5.60
2018-06-24T06:08:05.395Z,5.00
2018-06-24T06:10:34.300Z,5.20
2018-06-24T06:13:03.319Z,5.70
2018-06-24T06:15:32.223Z,5.47
2018-06-24T06:18:01.111Z,5.47
2018-06-24T06:20:30.009Z,5.30
2018-06-24T06:22:58.902Z,5.40
2018-06-24T06:25:27.831Z,5.43
2018-06-24T06:27:56.731Z,6.03
2018-06-24T06:30:25.899Z,5.80
2018-06-24T06:32:54.831Z,5.83
2018-06-24T06:35:23.867Z,5.70
2018-06-24T06:37:52.791Z,5.90
2018-06-24T06:40:21.691Z,6.37
2018-06-24T06:42:51.808Z,5.63
2018-06-24T06:45:20.822Z,6.30
2018-06-24T06:47:49.756Z,5.60
2018-06-24T06:50:18.679Z,5.80
2018-06-24T06:52:47.599Z,6.20
2018-06-24T06:55:16.482Z,5.90
2018-06-24T06:57:45.404Z,5.77
2018-06-24T07:00:14.733Z,6.47
2018-06-24T07:02:43.429Z,5.73
2018-06-24T07:05:12.552Z,5.80
2018-06-24T07:07:41.463Z,5.90
2018-06-24T07:10:10.382Z,5.83
2018-06-24T07:12:39.377Z,5.87
2018-06-24T07:15:08.075Z,5.37
2018-06-24T07:17:36.850Z,6.33
2018-06-24T07:20:06.203Z,5.80
2018-06-24T07:22:35.108Z,5.63
2018-06-24T07:25:04.004Z,5.73
2018-06-24T07:27:33.030Z,5.80
2018-06-24T07:30:02.493Z,5.37
2018-06-24T07:32:31.573Z,5.43
2018-06-24T07:35:00.646Z,5.70
2018-06-24T07:37:29.659Z,5.30
2018-06-24T07:39:58.566Z,5.57
2018-06-24T07:42:27.479Z,5.23
2018-06-24T07:44:56.383Z,5.27
2018-06-24T07:47:25.290Z,5.07
2018-06-24T07:49:54.174Z,5.37
2018-06-24T07:52:23.082Z,5.77
2018-06-24T07:54:52.211Z,5.30
2018-06-24T07:57:21.162Z,5.20
2018-06-24T07:59:50.015Z,5.30
2018-06-24T08:02:19.487Z,4.87
2018-06-24T08:04:48.362Z,4.87
2018-06-24T08:07:17.571Z,4.80
2018-06-24T08:09:46.502Z,4.40
2018-06-24T08:12:15.450Z,4.70
2018-06-24T08:14:44.448Z,4.07
2018-06-24T08:17:13.347Z,4.40
2018-06-24T08:19:42.243Z,4.00
2018-06-24T08:22:11.134Z,4.00
2018-06-24T08:24:39.859Z,4.60
2018-06-24T08:27:08.588Z,4.43
2018-06-24T08:29:37.454Z,4.50
2018-06-24T08:32:06.791Z,4.30
2018-06-24T08:34:35.722Z,4.00
2018-06-24T08:37:04.726Z,4.53
2018-06-24T08:39:33.639Z,3.87
2018-06-24T08:42:02.624Z,4.70
2018-06-24T08:44:31.508Z,3.60
2018-06-24T08:47:00.375Z,4.03
2018-06-24T08:49:29.269Z,3.83
2018-06-24T08:51:58.184Z,4.30
2018-06-24T08:54:27.165Z,3.30
2018-06-24T08:56:56.134Z,3.60
2018-06-24T08:59:25.034Z,4.13
2018-06-24T09:01:53.911Z,4.03
2018-06-24T09:04:22.792Z,4.80
2018-06-24T09:06:51.679Z,4.83
2018-06-24T09:09:20.582Z,5.40
2018-06-24T09:11:49.466Z,5.53
2018-06-24T09:14:18.435Z,5.70
2018-06-24T09:16:47.263Z,4.73
2018-06-24T09:19:22.880Z,3.80
2018-06-24T09:21:51.795Z,4.30
2018-06-24T09:24:20.688Z,5.30
2018-06-24T09:26:49.798Z,4.30
2018-06-24T09:29:18.699Z,4.67
2018-06-24T09:31:47.583Z,5.00
2018-06-24T09:34:17.303Z,4.83
2018-06-24T09:36:46.175Z,4.37
2018-06-24T09:39:15.079Z,4.50
2018-06-24T09:41:43.957Z,4.77
2018-06-24T09:44:12.859Z,4.20
2018-06-24T09:46:41.739Z,3.83
2018-06-24T09:49:10.640Z,3.60
2018-06-24T09:51:39.299Z,3.83
2018-06-24T09:54:08.154Z,3.80
2018-06-24T09:56:37.054Z,3.50
2018-06-24T09:59:05.937Z,3.73
2018-06-24T10:01:34.891Z,3.13
2018-06-24T10:04:03.823Z,3.20
2018-06-24T10:06:32.704Z,3.50
2018-06-24T10:09:01.617Z,3.83
2018-06-24T10:11:30.698Z,3.30
2018-06-24T10:13:59.935Z,3.33
2018-06-24T10:16:28.813Z,3.30
2018-06-24T10:18:57.742Z,2.87
2018-06-24T10:21:26.706Z,3.17
2018-06-24T10:23:55.605Z,2.90
2018-06-24T10:26:24.487Z,2.73
2018-06-24T10:28:53.398Z,2.90
2018-06-24T10:31:22.283Z,3.37
2018-06-24T10:33:51.622Z,2.80
2018-06-24T10:36:20.508Z,3.00
2018-06-24T10:38:49.437Z,3.20
2018-06-24T10:41:18.298Z,2.83
2018-06-24T10:43:47.331Z,3.60
2018-06-24T10:46:16.223Z,3.00
2018-06-24T10:48:45.279Z,3.13
2018-06-24T10:51:14.219Z,3.57
2018-06-24T11:15:09.501Z,4.90
2018-06-24T11:17:38.378Z,5.20
2018-06-24T11:20:07.271Z,4.90
2018-06-24T11:22:36.231Z,5.67
2018-06-24T11:25:05.671Z,6.17
2018-06-24T11:27:34.619Z,5.70
2018-06-24T11:30:03.520Z,6.00
2018-06-24T11:32:32.507Z,5.60
2018-06-24T11:35:01.628Z,5.50
2018-06-24T11:37:30.502Z,5.20
2018-06-24T11:39:59.414Z,5.50
2018-06-24T11:42:28.404Z,5.80
2018-06-24T11:44:57.313Z,5.43
2018-06-24T11:47:26.194Z,6.23
2018-06-24T11:49:55.107Z,5.03
2018-06-24T11:52:24.019Z,4.83
2018-06-24T11:54:52.922Z,5.37
2018-06-24T11:57:21.803Z,5.10
2018-06-24T11:59:50.703Z,5.10
2018-06-24T12:02:19.599Z,4.90
2018-06-24T12:04:48.491Z,4.87
2018-06-24T12:07:17.370Z,4.40
2018-06-24T12:09:46.309Z,4.50
2018-06-24T12:12:15.164Z,4.20
2018-06-24T12:14:44.064Z,4.77
2018-06-24T12:17:13.203Z,4.87
2018-06-24T12:19:42.079Z,5.10
2018-06-24T12:22:10.976Z,6.10
2018-06-24T12:24:39.855Z,5.30
2018-06-24T12:27:08.771Z,6.10
2018-06-24T12:29:37.655Z,6.57
2018-06-24T12:32:06.562Z,5.30
2018-06-24T12:34:35.450Z,4.93
2018-06-24T12:37:04.357Z,5.03
2018-06-24T12:39:33.247Z,4.40
2018-06-24T12:42:02.130Z,4.93
2018-06-24T12:44:31.018Z,4.73
2018-06-24T12:46:59.894Z,4.47
2018-06-24T12:49:28.784Z,5.13
2018-06-24T12:51:57.683Z,4.80
2018-06-24T12:54:26.567Z,4.50
2018-06-24T12:56:55.455Z,3.97
2018-06-24T12:59:24.520Z,3.40
2018-06-24T13:01:53.823Z,2.90
2018-06-24T13:04:22.715Z,2.90
2018-06-24T13:06:51.611Z,2.60
2018-06-24T13:09:20.495Z,2.97
2018-06-24T13:11:49.467Z,3.10
2018-06-24T13:14:18.902Z,2.53
2018-06-24T13:16:47.694Z,2.53
2018-06-24T13:19:16.577Z,2.60
2018-06-24T13:21:45.464Z,2.63
2018-06-24T13:24:14.371Z,2.83
2018-06-24T13:26:43.322Z,2.57
2018-06-24T13:29:12.139Z,2.30
2018-06-24T13:31:41.047Z,2.53
2018-06-24T13:34:10.024Z,2.83
2018-06-24T13:36:38.907Z,2.20
2018-06-24T13:39:08.923Z,2.40
2018-06-24T13:41:37.823Z,2.60
2018-06-24T13:44:07.109Z,2.10
2018-06-24T13:46:36.234Z,2.20
2018-06-24T13:49:05.172Z,2.20
2018-06-24T13:51:34.074Z,2.00
2018-06-24T13:54:02.964Z,2.00
2018-06-24T13:56:31.863Z,2.03
2018-06-24T13:59:00.763Z,2.30
2018-06-24T14:01:29.669Z,2.60
2018-06-24T14:03:58.655Z,2.60
2018-06-24T14:06:27.511Z,2.63
2018-06-24T14:08:56.394Z,2.40
2018-06-24T14:11:25.301Z,2.70
2018-06-24T14:13:54.244Z,2.43
2018-06-24T14:16:23.090Z,2.80
2018-06-24T14:18:51.982Z,2.73
2018-06-24T14:21:20.875Z,3.20
2018-06-24T14:23:49.758Z,2.87
2018-06-24T14:26:18.643Z,3.13
2018-06-24T14:28:47.528Z,3.10
2018-06-24T14:31:16.434Z,2.90
2018-06-24T14:33:45.386Z,3.30
2018-06-24T14:36:14.389Z,3.30
2018-06-24T14:38:43.579Z,3.10
2018-06-24T14:41:12.498Z,3.13
2018-06-24T14:43:41.372Z,3.50
2018-06-24T14:46:10.269Z,3.73
2018-06-24T14:48:39.174Z,3.57
2018-06-24T14:51:08.069Z,3.67
2018-06-24T14:53:36.964Z,3.60
2018-06-24T14:56:05.954Z,3.77
2018-06-24T14:58:34.866Z,4.00
2018-06-24T15:01:04.131Z,3.63
2018-06-24T15:03:33.011Z,3.73
2018-06-24T15:06:01.908Z,3.90
2018-06-24T15:08:30.859Z,4.23
2018-06-24T15:10:59.737Z,4.20
2018-06-24T15:13:28.989Z,3.80
2018-06-24T15:15:58.162Z,4.00
2018-06-24T15:18:27.494Z,4.10
2018-06-24T15:20:56.382Z,4.07
2018-06-24T15:23:25.260Z,4.73
2018-06-24T15:25:54.172Z,4.70
2018-06-24T15:28:23.058Z,4.17
2018-06-24T15:30:51.959Z,4.10
2018-06-24T15:33:20.848Z,4.00
2018-06-24T15:35:49.764Z,4.03
2018-06-24T15:38:18.668Z,3.90
2018-06-24T15:40:47.559Z,4.23
2018-06-24T15:43:16.458Z,4.10
2018-06-24T15:45:45.420Z,4.03
2018-06-24T15:48:14.258Z,4.40
2018-06-24T15:50:43.155Z,4.63
2018-06-24T15:53:12.027Z,4.30
2018-06-24T15:55:40.926Z,4.03
2018-06-24T15:58:10.164Z,4.70
2018-06-24T16:00:39.270Z,4.50
2018-06-24T16:03:08.246Z,4.77
2018-06-24T16:05:37.188Z,5.47
2018-06-24T16:08:06.578Z,4.83
2018-06-24T16:10:36.596Z,5.30
2018-06-24T16:13:07.820Z,5.73
2018-06-24T16:15:37.158Z,5.40
2018-06-24T16:18:06.153Z,5.27
2018-06-24T16:20:35.139Z,5.27
2018-06-24T16:23:04.108Z,6.10
2018-06-24T16:25:33.176Z,5.33
2018-06-24T16:28:02.719Z,4.50
2018-06-24T16:30:31.621Z,5.23
2018-06-24T16:33:00.550Z,5.40
2018-06-24T16:35:29.436Z,4.70
2018-06-24T16:37:58.314Z,5.30
2018-06-24T16:40:27.220Z,5.10
2018-06-24T16:42:56.191Z,5.00
2018-06-24T16:45:25.087Z,5.33
2018-06-24T16:47:54.030Z,5.33
2018-06-24T16:50:22.961Z,5.50
2018-06-24T16:52:51.846Z,5.60
2018-06-24T16:55:20.882Z,5.63
2018-06-24T16:57:49.890Z,5.20
2018-06-24T17:00:19.394Z,5.60
2018-06-24T17:02:48.756Z,5.70
2018-06-24T17:05:18.898Z,5.07
2018-06-24T17:07:48.883Z,5.60
2018-06-24T17:10:18.404Z,5.60
2018-06-24T17:12:47.552Z,5.47
2018-06-24T17:15:16.742Z,5.23
2018-06-24T17:17:46.616Z,5.40
2018-06-24T17:20:15.983Z,5.13
2018-06-24T17:22:45.144Z,5.00
2018-06-24T17:25:14.591Z,4.60
2018-06-24T17:27:43.591Z,5.27
2018-06-24T17:30:14.294Z,5.37
2018-06-24T17:32:43.468Z,4.90
2018-06-24T17:35:12.598Z,4.73
2018-06-24T17:37:41.486Z,5.30
2018-06-24T17:40:10.618Z,5.60
2018-06-24T17:42:39.565Z,5.20
2018-06-24T17:45:08.429Z,5.03
2018-06-24T17:47:37.840Z,5.27
2018-06-24T17:50:07.031Z,5.20
2018-06-24T17:52:36.075Z,5.33
2018-06-24T17:55:05.129Z,5.00
2018-06-24T17:57:34.500Z,5.50
2018-06-24T18:00:03.449Z,5.50
2018-06-24T18:02:32.514Z,5.87
2018-06-24T18:05:01.485Z,5.77
2018-06-24T18:07:30.410Z,5.53
2018-06-24T18:09:59.528Z,5.67
2018-06-24T18:12:29.176Z,4.87
2018-06-24T18:14:58.222Z,5.07
2018-06-24T18:17:27.392Z,5.40
2018-06-24T18:19:56.259Z,4.97
2018-06-24T18:22:26.772Z,5.63
2018-06-24T18:24:56.515Z,4.80
2018-06-24T18:27:25.842Z,4.73
2018-06-24T18:29:55.557Z,4.73
2018-06-24T18:32:25.116Z,5.23
2018-06-24T18:34:54.149Z,5.23
2018-06-24T18:37:24.131Z,5.43
2018-06-24T18:39:53.224Z,5.63
2018-06-24T18:42:22.366Z,5.77
2018-06-24T18:44:51.645Z,5.80
2018-06-24T18:47:21.274Z,6.00
2018-06-24T18:49:50.306Z,5.90
2018-06-24T18:52:19.971Z,6.10
2018-06-24T18:54:49.593Z,5.53
2018-06-24T18:57:19.158Z,6.07
2018-06-24T18:59:48.487Z,5.83
2018-06-24T19:02:18.731Z,6.07
2018-06-24T19:04:48.072Z,5.37
2018-06-24T19:07:17.171Z,5.80
2018-06-24T19:09:46.067Z,5.33
2018-06-24T19:12:15.786Z,5.70
2018-06-24T19:14:44.834Z,5.60
2018-06-24T19:17:14.071Z,5.70
2018-06-24T19:19:43.611Z,5.07
2018-06-24T19:22:12.930Z,5.57
2018-06-24T19:24:42.626Z,5.23
2018-06-24T19:27:12.142Z,5.50
2018-06-24T19:29:42.500Z,5.53
2018-06-24T19:32:13.330Z,5.27
2018-06-24T19:34:43.769Z,5.67
2018-06-24T19:37:13.096Z,4.73
2018-06-24T19:39:42.026Z,5.23
2018-06-24T19:42:10.951Z,5.20
2018-06-24T19:44:41.629Z,5.30
2018-06-24T19:47:11.149Z,6.00
2018-06-24T19:49:42.157Z,5.60
2018-06-24T19:52:11.179Z,5.30
2018-06-24T19:54:40.146Z,5.37
2018-06-24T19:57:09.338Z,4.83
2018-06-24T19:59:38.235Z,5.30
2018-06-24T20:02:07.391Z,5.20
2018-06-24T20:04:36.612Z,5.13
2018-06-24T20:07:05.522Z,5.20
2018-06-24T20:09:34.428Z,5.37
2018-06-24T20:12:03.315Z,5.27
2018-06-24T20:14:32.246Z,5.63
2018-06-24T20:17:01.123Z,5.50
2018-06-24T20:19:30.039Z,5.77
2018-06-24T20:21:58.980Z,5.33
2018-06-24T20:24:27.814Z,5.20
2018-06-24T20:26:56.694Z,5.27
2018-06-24T20:29:27.014Z,4.83
2018-06-24T20:31:56.446Z,4.93
2018-06-24T20:34:25.946Z,4.17
2018-06-24T20:36:56.474Z,3.27
2018-06-24T20:39:25.370Z,3.60
2018-06-24T20:41:55.031Z,2.90
2018-06-24T20:44:24.345Z,3.00
2018-06-24T20:46:54.038Z,3.00
2018-06-24T20:49:23.230Z,2.93
2018-06-24T20:51:52.587Z,2.40
2018-06-24T20:54:22.592Z,2.43
2018-06-24T20:56:51.863Z,2.60
2018-06-24T20:59:21.006Z,2.77
2018-06-24T21:01:49.931Z,3.10
2018-06-24T21:04:19.421Z,2.60
2018-06-24T21:06:48.443Z,3.00
2018-06-24T21:09:17.380Z,3.30
2018-06-24T21:11:46.862Z,3.20
2018-06-24T21:14:15.861Z,3.10
2018-06-24T21:16:45.290Z,3.70
2018-06-24T21:19:14.341Z,3.80
2018-06-24T21:21:43.263Z,3.83
2018-06-24T21:24:12.266Z,3.87
2018-06-24T21:26:41.722Z,3.70
2018-06-24T21:29:11.461Z,3.77
2018-06-24T21:31:40.354Z,4.00
2018-06-24T21:34:09.244Z,4.17
2018-06-24T21:36:38.139Z,4.60
2018-06-24T21:39:08.446Z,4.80
2018-06-24T21:41:37.349Z,4.93
2018-06-24T21:44:06.235Z,5.13
2018-06-24T21:46:35.134Z,4.97
2018-06-24T21:49:04.014Z,5.23
2018-06-24T21:51:32.919Z,5.53
2018-06-24T21:54:01.802Z,5.07
2018-06-24T21:56:30.701Z,5.03
2018-06-24T21:58:59.610Z,5.00
2018-06-24T22:01:28.499Z,5.47
2018-06-24T22:03:57.389Z,5.10
2018-06-24T22:06:26.283Z,4.83
2018-06-24T22:08:55.167Z,5.20
2018-06-24T22:11:24.063Z,5.60
2018-06-24T22:13:52.955Z,5.67
2018-06-24T22:16:21.847Z,5.40
2018-06-24T22:18:50.719Z,5.63
2018-06-24T22:21:19.611Z,5.57
2018-06-24T22:23:48.507Z,5.10
2018-06-24T22:26:17.395Z,6.50
2018-06-24T22:28:46.271Z,6.27
2018-06-24T22:31:15.169Z,7.03
2018-06-24T22:33:44.042Z,7.13
2018-06-24T22:36:12.943Z,6.80
2018-06-24T22:38:41.848Z,6.83
2018-06-24T22:41:10.747Z,6.80
2018-06-24T22:43:39.811Z,6.90
2018-06-24T22:46:08.719Z,6.47
2018-06-24T22:48:37.610Z,6.20
2018-06-24T22:51:06.515Z,6.80
2018-06-24T22:53:35.386Z,6.43
2018-06-24T22:56:04.274Z,6.60
2018-06-24T22:58:33.154Z,7.20
2018-06-24T23:01:02.075Z,7.03
2018-06-24T23:03:30.762Z,7.53
2018-06-24T23:05:59.636Z,7.50
2018-06-24T23:08:28.526Z,8.33
2018-06-24T23:10:57.438Z,7.47
2018-06-24T23:13:26.350Z,7.63
2018-06-24T23:15:55.227Z,7.80
2018-06-24T23:18:24.119Z,7.10
2018-06-24T23:20:53.008Z,6.87
2018-06-24T23:23:21.936Z,6.50
2018-06-24T23:25:50.811Z,6.20
2018-06-24T23:28:19.706Z,6.50
2018-06-24T23:30:48.581Z,6.30
2018-06-24T23:33:17.475Z,5.50
2018-06-24T23:35:46.342Z,5.83
2018-06-24T23:38:15.231Z,6.23
2018-06-24T23:40:44.115Z,6.93
2018-06-24T23:43:13.021Z,7.00
2018-06-24T23:45:41.914Z,7.53
2018-06-24T23:48:10.816Z,7.87
2018-06-24T23:50:39.709Z,8.30
2018-06-24T23:53:08.611Z,8.60
2018-06-24T23:55:37.506Z,7.80
2018-06-24T23:58:06.643Z,8.57
